createdAt,value
2023-01-05T00:01:15.296Z,26.00
2023-01-05T00:06:14.733Z,26.70
2023-01-05T00:11:31.567Z,27.95
2023-01-05T00:16:48.827Z,25.98
2023-01-05T00:22:04.789Z,26.77
2023-01-05T00:27:02.939Z,27.25
2023-01-05T00:32:02.567Z,26.10
2023-01-05T00:37:00.769Z,27.58
2023-01-05T00:41:58.940Z,27.05
2023-01-05T00:46:57.128Z,26.80
2023-01-05T00:51:56.974Z,25.52
2023-01-05T00:56:55.165Z,25.90
2023-01-05T01:01:54.629Z,27.70
2023-01-05T01:06:54.758Z,27.17
2023-01-05T01:11:54.409Z,26.17
2023-01-05T01:16:52.721Z,25.88
2023-01-05T01:21:51.078Z,24.75
2023-01-05T01:26:49.298Z,26.00
2023-01-05T01:31:49.827Z,21.55
2023-01-05T01:36:48.097Z,28.20
2023-01-05T01:41:49.871Z,24.58
2023-01-05T01:46:51.879Z,22.23
2023-01-05T01:51:50.450Z,26.30
2023-01-05T01:56:50.904Z,28.58
2023-01-05T02:01:52.523Z,25.80
2023-01-05T02:06:51.142Z,22.92
2023-01-05T02:11:53.987Z,24.63
2023-01-05T02:17:01.805Z,22.15
2023-01-05T02:22:08.685Z,22.15
2023-01-05T02:27:29.927Z,23.33
2023-01-05T02:32:30.809Z,22.80
2023-01-05T02:37:34.070Z,28.25
2023-01-05T02:42:33.229Z,25.25
2023-01-05T02:47:39.066Z,24.85
2023-01-05T02:52:41.239Z,26.23
2023-01-05T02:57:51.508Z,24.77
2023-01-05T03:02:56.089Z,24.23
2023-01-05T03:08:06.939Z,24.25
2023-01-05T03:18:27.745Z,24.02
2023-01-05T03:23:44.046Z,22.95
2023-01-05T03:29:00.525Z,22.50
2023-01-05T03:34:25.697Z,22.45
2023-01-05T03:39:26.630Z,24.23
2023-01-05T03:44:26.186Z,24.30
2023-01-05T03:49:26.657Z,23.73
2023-01-05T03:54:24.874Z,23.80
2023-01-05T03:59:23.154Z,22.63
2023-01-05T04:04:22.765Z,24.45
2023-01-05T04:09:22.540Z,23.10
2023-01-05T04:14:21.054Z,22.95
2023-01-05T04:19:19.999Z,23.15
2023-01-05T04:24:22.924Z,22.92
2023-01-05T04:29:21.295Z,23.63
2023-01-05T04:34:21.719Z,25.90
2023-01-05T04:39:24.003Z,25.98
2023-01-05T04:44:22.378Z,29.30
2023-01-05T04:49:21.676Z,33.42
2023-01-05T04:54:21.976Z,24.40
2023-01-05T04:59:21.742Z,29.83
2023-01-05T05:04:20.837Z,27.67
2023-01-05T05:09:21.106Z,26.15
2023-01-05T05:14:21.568Z,26.55
2023-01-05T05:19:20.065Z,34.08
2023-01-05T05:24:19.529Z,24.83
2023-01-05T05:29:18.801Z,25.35
2023-01-05T05:34:18.799Z,24.90
2023-01-05T05:39:17.227Z,24.88
2023-01-05T05:44:15.384Z,24.52
2023-01-05T05:49:13.551Z,25.13
2023-01-05T05:54:13.086Z,27.65
2023-01-05T05:59:11.343Z,23.88
2023-01-05T06:04:09.591Z,22.70
2023-01-05T06:09:07.866Z,22.63
2023-01-05T06:14:07.824Z,23.88
2023-01-05T06:19:07.566Z,21.33
2023-01-05T06:24:06.010Z,23.13
2023-01-05T06:29:04.270Z,25.92
2023-01-05T06:34:03.846Z,23.73
2023-01-05T06:39:02.027Z,25.20
2023-01-05T06:44:00.187Z,25.38
2023-01-05T06:48:58.356Z,25.27
2023-01-05T06:53:57.877Z,26.00
2023-01-05T06:58:56.055Z,28.88
2023-01-05T07:03:54.300Z,26.42
2023-01-05T07:08:52.671Z,27.60
2023-01-05T07:13:52.236Z,27.63
2023-01-05T07:18:50.394Z,30.55
2023-01-05T07:23:48.562Z,27.83
2023-01-05T07:28:46.727Z,27.35
2023-01-05T07:33:46.253Z,27.27
2023-01-05T07:38:44.482Z,27.02
2023-01-05T07:43:42.617Z,25.95
2023-01-05T07:48:41.680Z,27.95
2023-01-05T07:53:44.171Z,28.42
2023-01-05T07:58:42.960Z,29.95
2023-01-05T08:03:41.193Z,26.20
2023-01-05T08:08:39.585Z,25.75
2023-01-05T08:13:56.608Z,24.30
2023-01-05T08:18:55.222Z,26.80
2023-01-05T08:23:54.335Z,26.83
2023-01-05T08:28:54.163Z,42.13
2023-01-05T08:33:52.332Z,27.15
2023-01-05T08:38:52.579Z,27.80
2023-01-05T08:43:51.209Z,27.52
2023-01-05T08:48:51.336Z,33.95
2023-01-05T08:53:50.074Z,35.00
2023-01-05T08:58:48.368Z,28.42
2023-01-05T09:03:46.595Z,30.23
2023-01-05T09:08:46.754Z,27.27
2023-01-05T09:13:47.093Z,28.02
2023-01-05T09:18:45.301Z,26.48
2023-01-05T09:23:43.994Z,28.38
2023-01-05T09:28:44.187Z,26.83
2023-01-05T09:33:42.683Z,29.58
2023-01-05T09:38:46.862Z,29.80
2023-01-05T09:43:47.736Z,29.30
2023-01-05T09:48:47.699Z,26.77
2023-01-05T09:53:46.269Z,30.20
2023-01-05T09:58:45.321Z,30.10
2023-01-05T10:09:04.729Z,27.65
2023-01-05T10:14:05.770Z,28.42
2023-01-05T10:19:05.333Z,29.75
2023-01-05T10:24:11.663Z,26.33
2023-01-05T10:29:11.474Z,25.88
2023-01-05T10:34:16.299Z,22.67
2023-01-05T10:39:19.916Z,21.17
2023-01-05T10:44:41.859Z,19.73
2023-01-05T10:49:42.514Z,20.15
2023-01-05T10:54:41.670Z,21.50
2023-01-05T10:59:54.924Z,22.45
2023-01-05T11:04:54.689Z,20.27
2023-01-05T11:09:52.969Z,21.00
2023-01-05T11:14:58.165Z,22.52
2023-01-05T11:19:58.932Z,18.92
2023-01-05T11:25:13.778Z,18.95
2023-01-05T11:30:24.656Z,18.10
2023-01-05T11:35:32.349Z,20.27
2023-01-05T11:40:32.789Z,16.52
2023-01-05T11:45:36.393Z,16.90
2023-01-05T11:50:43.468Z,20.25
2023-01-05T11:55:41.762Z,17.13
2023-01-05T12:00:52.086Z,15.82
2023-01-05T12:05:52.832Z,18.52
2023-01-05T12:11:04.613Z,14.13
2023-01-05T12:16:11.920Z,16.52
2023-01-05T12:21:14.771Z,12.98
2023-01-05T12:26:19.681Z,14.50
2023-01-05T12:36:42.779Z,13.15
2023-01-05T12:41:50.031Z,10.52
2023-01-05T12:46:54.298Z,12.23
2023-01-05T12:51:59.797Z,12.57
2023-01-05T12:57:02.272Z,10.48
2023-01-05T13:02:06.220Z,8.80
2023-01-05T13:07:07.829Z,9.05
2023-01-05T13:12:07.753Z,10.18
2023-01-05T13:17:07.616Z,10.18
2023-01-05T13:22:10.784Z,8.85
2023-01-05T13:27:10.428Z,8.70
2023-01-05T13:32:26.276Z,9.65
2023-01-05T13:37:39.447Z,10.73
2023-01-05T13:42:55.258Z,12.57
2023-01-05T13:48:07.508Z,8.52
2023-01-05T13:53:12.393Z,10.57
2023-01-05T13:58:23.699Z,9.10
2023-01-05T14:03:26.611Z,9.13
2023-01-05T14:08:27.979Z,10.73
2023-01-05T14:13:41.003Z,11.25
2023-01-05T14:18:53.409Z,10.30
2023-01-05T14:23:58.092Z,16.73
2023-01-05T14:28:56.403Z,16.60
2023-01-05T14:34:00.879Z,19.23
2023-01-05T14:38:59.574Z,13.23
2023-01-05T14:43:59.567Z,8.02
2023-01-05T14:49:05.233Z,13.18
2023-01-05T14:54:04.205Z,10.60
2023-01-05T14:59:19.934Z,10.15
2023-01-05T15:04:22.096Z,10.60
2023-01-05T15:09:28.849Z,9.43
2023-01-05T15:14:38.416Z,14.23
2023-01-05T15:19:52.271Z,18.15
2023-01-05T15:25:11.115Z,16.58
2023-01-05T15:30:17.695Z,11.27
2023-01-05T15:35:18.949Z,18.42
2023-01-05T15:40:31.014Z,15.82
2023-01-05T15:45:30.758Z,21.08
2023-01-05T15:50:32.679Z,18.65
2023-01-05T15:55:31.420Z,13.10
2023-01-05T16:00:30.842Z,14.57
2023-01-05T16:05:32.813Z,19.48
2023-01-05T16:10:32.462Z,16.42
2023-01-05T16:15:32.288Z,11.70
2023-01-05T16:20:32.592Z,12.80
2023-01-05T16:25:31.725Z,26.80
2023-01-05T16:30:31.762Z,21.45
2023-01-05T16:35:36.222Z,21.45
2023-01-05T16:40:35.089Z,20.23
2023-01-05T16:45:34.223Z,45.50
2023-01-05T16:50:59.325Z,19.00
2023-01-05T16:56:00.754Z,35.60
2023-01-05T17:01:15.969Z,30.63
2023-01-05T17:06:19.217Z,26.00
2023-01-05T17:11:18.915Z,16.73
2023-01-05T17:16:17.507Z,12.05
2023-01-05T17:21:16.867Z,16.90
2023-01-05T17:26:16.635Z,16.55
2023-01-05T17:31:16.320Z,21.48
2023-01-05T17:41:16.088Z,17.63
2023-01-05T17:46:18.289Z,19.02
2023-01-05T17:51:16.465Z,17.45
2023-01-05T17:56:15.747Z,15.95
2023-01-05T18:01:20.990Z,11.00
2023-01-05T18:06:19.327Z,9.68
2023-01-05T18:11:17.926Z,19.25
2023-01-05T18:16:17.620Z,16.65
2023-01-05T18:21:15.784Z,10.13
2023-01-05T18:26:14.510Z,8.75
2023-01-05T18:31:12.815Z,10.65
2023-01-05T18:36:14.324Z,12.68
2023-01-05T18:41:12.983Z,28.40
2023-01-05T18:46:11.226Z,14.27
2023-01-05T18:51:10.409Z,17.80
2023-01-05T18:56:10.882Z,11.02
2023-01-05T19:01:09.542Z,10.02
2023-01-05T19:06:08.516Z,10.40
2023-01-05T19:11:15.577Z,8.90
2023-01-05T19:16:15.207Z,13.48
2023-01-05T19:21:13.537Z,11.13
2023-01-05T19:26:11.726Z,16.33
2023-01-05T19:31:12.618Z,12.48
2023-01-05T19:36:11.895Z,14.57
2023-01-05T19:41:10.868Z,13.23
2023-01-05T19:46:10.830Z,13.38
2023-01-05T19:51:12.555Z,13.25
2023-01-05T19:56:11.804Z,17.80
2023-01-05T20:01:10.702Z,12.82
2023-01-05T20:06:12.087Z,11.02
2023-01-05T20:11:11.307Z,12.40
2023-01-05T20:16:11.035Z,10.43
2023-01-05T20:21:13.471Z,9.95
2023-01-05T20:26:12.339Z,10.45
2023-01-05T20:31:16.428Z,10.00
2023-01-05T20:36:15.970Z,9.57
2023-01-05T20:41:15.007Z,10.05
2023-01-05T20:46:13.644Z,9.40
2023-01-05T20:51:12.982Z,12.43
2023-01-05T20:56:13.681Z,10.65
2023-01-05T21:01:12.297Z,12.98
2023-01-05T21:06:11.547Z,9.68
2023-01-05T21:11:15.935Z,14.55
2023-01-05T21:16:17.171Z,9.15
2023-01-05T21:21:16.313Z,9.60
2023-01-05T21:26:15.869Z,12.80
2023-01-05T21:31:16.223Z,8.88
2023-01-05T21:36:16.847Z,8.63
2023-01-05T21:41:15.007Z,14.88
2023-01-05T21:46:13.221Z,13.07
2023-01-05T21:51:43.138Z,16.13
2023-01-05T21:56:44.527Z,27.15
2023-01-05T22:01:42.736Z,30.80
2023-01-05T22:06:41.196Z,22.42
2023-01-05T22:11:39.345Z,17.52
2023-01-05T22:16:38.940Z,22.27
2023-01-05T22:21:37.294Z,25.45
2023-01-05T22:26:35.460Z,23.05
2023-01-05T22:31:35.606Z,28.13
2023-01-05T22:36:35.210Z,21.88
2023-01-05T22:41:33.518Z,12.27
2023-01-05T22:46:32.537Z,28.27
2023-01-05T22:51:31.666Z,22.95
2023-01-05T22:56:32.045Z,9.70
2023-01-05T23:01:31.247Z,10.88
2023-01-05T23:06:29.602Z,9.50
2023-01-05T23:11:28.588Z,9.90
2023-01-05T23:16:28.451Z,9.60
2023-01-05T23:21:27.153Z,8.35
2023-01-05T23:26:26.773Z,9.63
2023-01-05T23:31:25.056Z,8.98
2023-01-05T23:36:24.743Z,9.95
2023-01-05T23:41:22.910Z,11.05
2023-01-05T23:46:21.931Z,10.50
2023-01-05T23:51:20.381Z,9.38
2023-01-05T23:56:20.827Z,10.40
